createdAt,value
2023-05-10T00:01:35.092Z,4.70
2023-05-10T00:04:04.969Z,4.70
2023-05-10T00:06:33.416Z,4.70
2023-05-10T00:09:01.400Z,4.70
2023-05-10T00:11:29.459Z,4.60
2023-05-10T00:13:57.451Z,4.60
2023-05-10T00:16:25.612Z,4.50
2023-05-10T00:18:53.672Z,4.60
2023-05-10T00:21:23.079Z,4.60
2023-05-10T00:23:51.094Z,4.60
2023-05-10T00:26:19.070Z,4.70
2023-05-10T00:28:53.167Z,4.60
2023-05-10T00:31:21.510Z,4.60
2023-05-10T00:33:49.498Z,4.50
2023-05-10T00:36:17.532Z,4.50
2023-05-10T00:38:46.830Z,4.40
2023-05-10T00:41:14.836Z,4.50
2023-05-10T00:43:43.467Z,4.50
2023-05-10T00:46:12.159Z,4.50
2023-05-10T00:48:40.341Z,4.40
2023-05-10T00:51:08.454Z,4.40
2023-05-10T00:53:37.142Z,4.30
2023-05-10T00:56:07.361Z,4.30
2023-05-10T00:58:35.630Z,4.20
2023-05-10T01:01:04.318Z,4.10
2023-05-10T01:03:32.854Z,4.00
2023-05-10T01:06:01.091Z,4.00
2023-05-10T01:08:29.905Z,3.90
2023-05-10T01:10:57.998Z,3.90
2023-05-10T01:13:34.950Z,3.90
2023-05-10T01:16:04.350Z,3.90
2023-05-10T01:18:35.205Z,3.90
2023-05-10T01:21:16.840Z,4.00
2023-05-10T01:24:04.403Z,4.10
2023-05-10T01:27:06.992Z,4.10
2023-05-10T01:30:26.325Z,4.00
2023-05-10T01:32:59.831Z,4.00
2023-05-10T01:35:34.611Z,4.20
2023-05-10T01:38:10.493Z,4.30
2023-05-10T01:40:44.336Z,4.30
2023-05-10T01:43:19.785Z,4.40
2023-05-10T01:45:56.989Z,4.30
2023-05-10T01:48:29.417Z,4.30
2023-05-10T01:50:59.314Z,4.30
2023-05-10T01:53:29.285Z,4.30
2023-05-10T01:55:58.656Z,4.30
2023-05-10T01:58:31.463Z,4.30
2023-05-10T02:01:02.037Z,4.10
2023-05-10T02:03:34.461Z,4.00
2023-05-10T02:06:03.461Z,3.90
2023-05-10T02:08:32.822Z,3.90
2023-05-10T02:11:01.241Z,3.80
2023-05-10T02:13:31.399Z,3.70
2023-05-10T02:16:01.254Z,3.70
2023-05-10T02:18:32.210Z,3.70
2023-05-10T02:21:00.908Z,3.80
2023-05-10T02:23:30.213Z,3.70
2023-05-10T02:26:00.814Z,3.60
2023-05-10T02:28:30.013Z,3.60
2023-05-10T02:30:59.037Z,3.50
2023-05-10T02:33:28.913Z,3.50
2023-05-10T02:35:58.681Z,3.50
2023-05-10T02:38:29.161Z,3.50
2023-05-10T02:40:59.296Z,3.40
2023-05-10T02:43:28.153Z,3.30
2023-05-10T02:45:58.051Z,3.20
2023-05-10T02:48:26.440Z,3.20
2023-05-10T02:51:02.698Z,3.20
2023-05-10T02:53:33.939Z,3.10
2023-05-10T02:56:08.132Z,3.10
2023-05-10T02:58:36.520Z,3.10
2023-05-10T03:01:04.988Z,3.10
2023-05-10T03:03:33.121Z,3.10
2023-05-10T03:06:02.788Z,3.10
2023-05-10T03:08:31.259Z,3.10
2023-05-10T03:11:21.935Z,3.10
2023-05-10T03:13:57.528Z,3.10
2023-05-10T03:16:30.261Z,3.00
2023-05-10T03:19:08.057Z,3.00
2023-05-10T03:21:43.270Z,3.00
2023-05-10T03:24:15.807Z,3.10
2023-05-10T03:26:46.807Z,3.10
2023-05-10T03:29:20.380Z,3.10
2023-05-10T03:31:48.493Z,3.20
2023-05-10T03:34:17.343Z,3.30
2023-05-10T03:36:47.004Z,3.30
2023-05-10T03:39:15.027Z,3.50
2023-05-10T03:41:45.412Z,3.80
2023-05-10T03:44:13.416Z,4.20
2023-05-10T03:46:41.618Z,4.80
2023-05-10T03:49:10.143Z,5.30
2023-05-10T03:52:47.592Z,5.90
2023-05-10T03:55:15.698Z,6.50
2023-05-10T03:58:52.562Z,7.00
2023-05-10T04:01:20.592Z,7.60
2023-05-10T04:03:48.779Z,8.00
2023-05-10T04:06:17.021Z,8.50
2023-05-10T04:08:45.087Z,8.90
2023-05-10T04:11:13.879Z,9.40
2023-05-10T04:13:42.180Z,9.50
2023-05-10T04:16:11.524Z,9.90
2023-05-10T04:18:40.665Z,10.20
2023-05-10T04:21:13.608Z,10.60
2023-05-10T04:23:41.948Z,10.80
2023-05-10T04:26:09.948Z,11.00
